createdAt,value
2022-11-09T07:31:11.142Z,142086.44
2022-11-09T07:36:20.715Z,142070.41
2022-11-09T07:41:25.170Z,142091.38
2022-11-09T07:46:30.556Z,141953.06
2022-11-09T07:51:35.839Z,142154.44
2022-11-09T07:56:39.692Z,141977.75
2022-11-09T08:01:44.827Z,142193.97
2022-11-09T08:06:48.559Z,142154.44
2022-11-09T08:11:52.134Z,142164.31
2022-11-09T08:16:57.440Z,142138.38
2022-11-09T08:22:01.317Z,142206.31
2022-11-09T08:27:04.994Z,142151.97
2022-11-09T08:32:10.022Z,141900.03
2022-11-09T08:37:13.851Z,142165.56
2022-11-09T08:42:17.576Z,142013.59
2022-11-09T08:47:22.652Z,142215.00
2022-11-09T08:52:26.240Z,142179.13
2022-11-09T08:57:30.380Z,142156.91
2022-11-09T09:02:35.500Z,141823.47
2022-11-09T09:07:39.228Z,142187.81
2022-11-09T09:12:42.834Z,142171.72
2022-11-09T09:17:47.912Z,142105.00
2022-11-09T09:22:59.148Z,142299.09
2022-11-09T09:28:02.801Z,142331.22
2022-11-09T09:33:08.776Z,142383.19
2022-11-09T09:38:12.498Z,142395.53
2022-11-09T09:43:24.217Z,142192.75
2022-11-09T09:48:37.946Z,142190.28
2022-11-09T09:53:46.374Z,142483.38
2022-11-09T09:58:56.956Z,142426.47
2022-11-09T10:04:02.131Z,141739.53
2022-11-09T10:09:19.595Z,142433.91
2022-11-09T10:14:52.768Z,141951.84
2022-11-09T10:27:31.055Z,142478.44
2022-11-09T10:32:52.833Z,142499.47
2022-11-09T10:38:02.617Z,142119.81
2022-11-09T10:43:13.404Z,142440.09
2022-11-09T10:48:53.907Z,141872.84
2022-11-09T10:54:20.158Z,142641.78
2022-11-09T10:59:50.851Z,142723.53
2022-11-09T11:05:42.660Z,142815.19
2022-11-09T11:11:38.331Z,142858.56
2022-11-09T11:17:03.601Z,142832.53
2022-11-09T11:22:27.511Z,143032.09
2022-11-09T11:27:55.386Z,143100.28
2022-11-09T11:33:22.778Z,143159.81
2022-11-09T11:38:57.496Z,143060.63
2022-11-09T11:44:40.631Z,143115.19
2022-11-09T11:50:19.140Z,143117.66
2022-11-09T11:55:53.395Z,143197.06
2022-11-09T12:01:39.840Z,143254.16
2022-11-09T12:07:17.688Z,143282.69
2022-11-09T12:12:51.259Z,143230.56
2022-11-09T12:18:28.831Z,143234.28
2022-11-09T12:24:14.098Z,143287.66
2022-11-09T12:29:40.924Z,143318.66
2022-11-09T12:35:27.548Z,143063.09
2022-11-09T12:40:56.097Z,143063.09
2022-11-09T12:46:21.347Z,143291.38
2022-11-09T12:51:43.841Z,143194.59
2022-11-09T12:57:38.539Z,142895.72
2022-11-09T13:03:32.914Z,143122.63
2022-11-09T13:09:02.486Z,143249.16
2022-11-09T13:14:39.381Z,142730.94
2022-11-09T13:20:55.433Z,142861.03
2022-11-09T13:26:25.064Z,143184.63
2022-11-09T13:32:27.298Z,142944.09
2022-11-09T13:37:59.746Z,142518.06
2022-11-09T13:43:26.149Z,142740.84
2022-11-09T13:48:52.938Z,142899.44
2022-11-09T13:54:50.180Z,142039.53
2022-11-09T14:00:19.691Z,142997.41
2022-11-09T14:05:42.330Z,142576.19
2022-11-09T14:11:25.708Z,142944.09
2022-11-09T14:16:51.648Z,142904.38
2022-11-09T14:22:17.220Z,142858.56
2022-11-09T14:27:47.796Z,142833.78
2022-11-09T14:33:22.682Z,142789.16
2022-11-09T14:38:48.830Z,142755.72
2022-11-09T14:44:18.468Z,142696.28
2022-11-09T14:49:41.431Z,142568.72
2022-11-09T14:55:04.743Z,142666.56
2022-11-09T15:00:33.201Z,142645.50
2022-11-09T15:06:05.946Z,142639.31
2022-11-09T15:11:33.080Z,142560.06
2022-11-09T15:17:13.600Z,142365.84
2022-11-09T15:22:49.520Z,142526.72
2022-11-09T15:28:22.318Z,142471.03
2022-11-09T15:33:52.278Z,142483.38
2022-11-09T15:39:18.094Z,142475.97
2022-11-09T15:44:40.371Z,142446.28
2022-11-09T15:50:16.120Z,142425.22
2022-11-09T15:55:41.942Z,142318.84
2022-11-09T16:01:06.634Z,142258.25
2022-11-09T16:06:31.083Z,142328.75
2022-11-09T16:12:05.114Z,142380.72
2022-11-09T16:17:28.593Z,142198.91
2022-11-09T16:34:37.546Z,142369.56
2022-11-09T16:40:00.621Z,142358.44
2022-11-09T16:45:25.903Z,142349.81
2022-11-09T16:50:53.611Z,142328.75
2022-11-09T16:56:17.158Z,142317.59
2022-11-09T17:01:39.562Z,142307.72
2022-11-09T17:07:03.090Z,142231.06
2022-11-09T17:12:25.329Z,142300.31
2022-11-09T17:17:50.122Z,142317.59
2022-11-09T17:23:18.842Z,142128.50
2022-11-09T17:28:43.316Z,142315.13
2022-11-09T17:34:05.742Z,142325.06
2022-11-09T17:39:38.634Z,142325.06
2022-11-09T17:45:01.101Z,142273.13
2022-11-09T17:50:29.632Z,142369.56
2022-11-09T17:56:42.334Z,142404.19
2022-11-09T18:02:31.574Z,142232.28
2022-11-09T18:08:21.231Z,142424.00
2022-11-09T18:13:49.432Z,142336.16
2022-11-09T18:25:38.282Z,142442.56
2022-11-09T18:31:02.372Z,142404.19
2022-11-09T18:36:47.734Z,142526.72
2022-11-09T18:48:18.722Z,142536.59
2022-11-09T18:53:46.710Z,142539.06
2022-11-09T18:59:11.545Z,142545.25
2022-11-09T19:04:49.331Z,142534.13
2022-11-09T19:10:13.101Z,142519.31
2022-11-09T19:15:40.686Z,142447.50
2022-11-09T19:21:03.647Z,142342.34
2022-11-09T19:26:30.926Z,142478.44
2022-11-09T19:31:54.930Z,142441.34
2022-11-09T19:37:17.437Z,141903.72
2022-11-09T19:42:41.888Z,142294.16
2022-11-09T19:48:09.516Z,142231.06
2022-11-09T19:53:39.510Z,142360.91
2022-11-09T19:59:07.048Z,142344.81
2022-11-09T20:04:29.759Z,142216.25
2022-11-09T20:09:55.192Z,142301.56
2022-11-09T20:15:22.407Z,142095.09
2022-11-09T20:20:45.498Z,142270.66
2022-11-09T20:26:13.560Z,142249.63
2022-11-09T20:31:40.352Z,142242.22
2022-11-09T20:37:05.996Z,141888.88
2022-11-09T20:42:28.735Z,142223.66
2022-11-09T20:48:10.515Z,142082.75
2022-11-09T20:53:37.382Z,142158.16
2022-11-09T20:59:00.313Z,142216.25
2022-11-09T21:04:24.810Z,142016.06
2022-11-09T21:09:50.628Z,142201.38
2022-11-09T21:15:15.577Z,142205.09
2022-11-09T21:20:41.730Z,142193.97
2022-11-09T21:26:21.478Z,142201.38
2022-11-09T21:31:44.597Z,141958.00
2022-11-09T21:37:08.453Z,142081.53
2022-11-09T21:42:30.913Z,142200.16
2022-11-09T21:47:55.704Z,142093.84
2022-11-09T21:53:19.690Z,142196.44
2022-11-09T21:58:41.877Z,141955.53
2022-11-09T22:04:04.074Z,142081.53
2022-11-09T22:09:35.722Z,142145.78
2022-11-09T22:15:15.530Z,141526.13
2022-11-09T22:20:55.772Z,142216.25
2022-11-09T22:26:32.511Z,141474.41
2022-11-09T22:31:55.009Z,142259.50
2022-11-09T22:37:17.639Z,142252.09
